sensor_id;sensor_type;location;lat;lon;timestamp;temperature;humidity
9371;DHT22;4725;48.384;8.984;2023-02-12T00:00:08;1.10;99.90
9371;DHT22;4725;48.384;8.984;2023-02-12T00:02:35;1.00;99.90
9371;DHT22;4725;48.384;8.984;2023-02-12T00:07:31;1.10;99.90
9371;DHT22;4725;48.384;8.984;2023-02-12T00:09:58;1.10;99.90
9371;DHT22;4725;48.384;8.984;2023-02-12T00:12:25;1.10;99.90
9371;DHT22;4725;48.384;8.984;2023-02-12T00:14:52;1.00;99.90
9371;DHT22;4725;48.384;8.984;2023-02-12T00:17:19;0.90;99.90
9371;DHT22;4725;48.384;8.984;2023-02-12T00:19:46;0.80;99.90
9371;DHT22;4725;48.384;8.984;2023-02-12T00:22:13;1.00;99.90
9371;DHT22;4725;48.384;8.984;2023-02-12T00:24:41;0.90;99.90
9371;DHT22;4725;48.384;8.984;2023-02-12T00:27:08;1.00;99.90
9371;DHT22;4725;48.384;8.984;2023-02-12T00:29:36;1.00;99.90
9371;DHT22;4725;48.384;8.984;2023-02-12T00:32:03;1.00;99.90
9371;DHT22;4725;48.384;8.984;2023-02-12T00:34:30;1.00;99.90
9371;DHT22;4725;48.384;8.984;2023-02-12T00:36:56;1.10;99.90
9371;DHT22;4725;48.384;8.984;2023-02-12T00:39:23;1.10;99.90
9371;DHT22;4725;48.384;8.984;2023-02-12T00:44:19;1.10;99.90
9371;DHT22;4725;48.384;8.984;2023-02-12T00:46:46;1.10;99.90
9371;DHT22;4725;48.384;8.984;2023-02-12T00:49:12;1.20;99.90
9371;DHT22;4725;48.384;8.984;2023-02-12T00:51:40;1.20;99.90
9371;DHT22;4725;48.384;8.984;2023-02-12T00:54:07;1.30;99.90
9371;DHT22;4725;48.384;8.984;2023-02-12T00:56:34;1.20;99.90
9371;DHT22;4725;48.384;8.984;2023-02-12T00:59:02;1.20;99.90
9371;DHT22;4725;48.384;8.984;2023-02-12T01:01:29;1.20;99.90
9371;DHT22;4725;48.384;8.984;2023-02-12T01:03:56;1.30;99.90
9371;DHT22;4725;48.384;8.984;2023-02-12T01:06:23;1.30;99.90
9371;DHT22;4725;48.384;8.984;2023-02-12T01:08:50;1.30;99.90
9371;DHT22;4725;48.384;8.984;2023-02-12T01:11:18;1.30;99.90
9371;DHT22;4725;48.384;8.984;2023-02-12T01:13:45;1.30;99.90
9371;DHT22;4725;48.384;8.984;2023-02-12T01:16:16;1.30;99.90
9371;DHT22;4725;48.384;8.984;2023-02-12T01:18:43;1.20;99.90
9371;DHT22;4725;48.384;8.984;2023-02-12T01:21:12;1.30;99.90
9371;DHT22;4725;48.384;8.984;2023-02-12T01:23:39;1.30;99.90
9371;DHT22;4725;48.384;8.984;2023-02-12T01:26:06;1.30;99.90
9371;DHT22;4725;48.384;8.984;2023-02-12T01:28:35;1.30;99.90
9371;DHT22;4725;48.384;8.984;2023-02-12T01:31:07;1.30;99.90
9371;DHT22;4725;48.384;8.984;2023-02-12T01:33:36;1.30;99.90
9371;DHT22;4725;48.384;8.984;2023-02-12T01:36:03;1.30;99.90
9371;DHT22;4725;48.384;8.984;2023-02-12T01:38:30;1.30;99.90
9371;DHT22;4725;48.384;8.984;2023-02-12T01:41:01;1.40;99.90
9371;DHT22;4725;48.384;8.984;2023-02-12T01:43:28;1.30;99.90
9371;DHT22;4725;48.384;8.984;2023-02-12T01:45:59;1.40;99.90
9371;DHT22;4725;48.384;8.984;2023-02-12T01:48:27;1.40;99.90
9371;DHT22;4725;48.384;8.984;2023-02-12T01:50:56;1.40;99.90
9371;DHT22;4725;48.384;8.984;2023-02-12T01:53:27;1.40;99.90
9371;DHT22;4725;48.384;8.984;2023-02-12T01:55:57;1.50;99.90
9371;DHT22;4725;48.384;8.984;2023-02-12T01:58:26;1.40;99.90
9371;DHT22;4725;48.384;8.984;2023-02-12T02:00:55;1.40;99.90
9371;DHT22;4725;48.384;8.984;2023-02-12T02:03:22;1.40;99.90
9371;DHT22;4725;48.384;8.984;2023-02-12T02:05:54;1.40;99.90
9371;DHT22;4725;48.384;8.984;2023-02-12T02:08:23;1.40;99.90
9371;DHT22;4725;48.384;8.984;2023-02-12T02:10:51;1.40;99.90
9371;DHT22;4725;48.384;8.984;2023-02-12T02:13:18;1.40;99.90
9371;DHT22;4725;48.384;8.984;2023-02-12T02:16:08;1.40;99.90
9371;DHT22;4725;48.384;8.984;2023-02-12T02:18:42;1.40;99.90
9371;DHT22;4725;48.384;8.984;2023-02-12T02:27:35;1.50;99.90
9371;DHT22;4725;48.384;8.984;2023-02-12T02:30:34;1.50;99.90
9371;DHT22;4725;48.384;8.984;2023-02-12T02:33:14;1.50;99.90
9371;DHT22;4725;48.384;8.984;2023-02-12T02:35:51;1.40;99.90
9371;DHT22;4725;48.384;8.984;2023-02-12T02:38:23;1.40;99.90
9371;DHT22;4725;48.384;8.984;2023-02-12T02:40:55;1.50;99.90
9371;DHT22;4725;48.384;8.984;2023-02-12T02:43:28;1.40;99.90
9371;DHT22;4725;48.384;8.984;2023-02-12T02:46:01;1.40;99.90
9371;DHT22;4725;48.384;8.984;2023-02-12T02:48:33;1.40;99.90
9371;DHT22;4725;48.384;8.984;2023-02-12T02:51:03;1.40;99.90
9371;DHT22;4725;48.384;8.984;2023-02-12T02:53:34;1.40;99.90
9371;DHT22;4725;48.384;8.984;2023-02-12T02:56:04;1.40;99.90
9371;DHT22;4725;48.384;8.984;2023-02-12T02:58:35;1.30;99.90
9371;DHT22;4725;48.384;8.984;2023-02-12T03:01:09;1.40;99.90
9371;DHT22;4725;48.384;8.984;2023-02-12T03:03:41;1.40;99.90
9371;DHT22;4725;48.384;8.984;2023-02-12T03:06:14;1.40;99.90
9371;DHT22;4725;48.384;8.984;2023-02-12T03:08:47;1.40;99.90
9371;DHT22;4725;48.384;8.984;2023-02-12T03:11:20;1.40;99.90
9371;DHT22;4725;48.384;8.984;2023-02-12T03:13:51;1.50;99.90
9371;DHT22;4725;48.384;8.984;2023-02-12T03:16:25;1.40;99.90
9371;DHT22;4725;48.384;8.984;2023-02-12T03:18:57;1.50;99.90
9371;DHT22;4725;48.384;8.984;2023-02-12T03:21:30;1.40;99.90
9371;DHT22;4725;48.384;8.984;2023-02-12T03:24:01;1.40;99.90
9371;DHT22;4725;48.384;8.984;2023-02-12T03:26:37;1.40;99.90
9371;DHT22;4725;48.384;8.984;2023-02-12T03:29:05;1.40;99.90
9371;DHT22;4725;48.384;8.984;2023-02-12T03:31:37;1.40;99.90
9371;DHT22;4725;48.384;8.984;2023-02-12T03:34:15;1.40;99.90
9371;DHT22;4725;48.384;8.984;2023-02-12T03:36:48;1.30;99.90
9371;DHT22;4725;48.384;8.984;2023-02-12T03:39:24;1.40;99.90
9371;DHT22;4725;48.384;8.984;2023-02-12T03:42:00;1.40;99.90
9371;DHT22;4725;48.384;8.984;2023-02-12T03:44:44;1.30;99.90
9371;DHT22;4725;48.384;8.984;2023-02-12T03:47:22;1.40;99.90
9371;DHT22;4725;48.384;8.984;2023-02-12T03:49:58;1.30;99.90
9371;DHT22;4725;48.384;8.984;2023-02-12T03:52:28;1.40;99.90
9371;DHT22;4725;48.384;8.984;2023-02-12T03:54:55;1.30;99.90
9371;DHT22;4725;48.384;8.984;2023-02-12T03:57:25;1.30;99.90
9371;DHT22;4725;48.384;8.984;2023-02-12T03:59:56;1.40;99.90
9371;DHT22;4725;48.384;8.984;2023-02-12T04:02:25;1.30;99.90
9371;DHT22;4725;48.384;8.984;2023-02-12T04:04:52;1.30;99.90
9371;DHT22;4725;48.384;8.984;2023-02-12T04:07:19;1.30;99.90
9371;DHT22;4725;48.384;8.984;2023-02-12T04:09:46;1.30;99.90
9371;DHT22;4725;48.384;8.984;2023-02-12T04:12:29;1.30;99.90
9371;DHT22;4725;48.384;8.984;2023-02-12T04:15:11;1.40;99.90
9371;DHT22;4725;48.384;8.984;2023-02-12T04:17:49;1.30;99.90
9371;DHT22;4725;48.384;8.984;2023-02-12T04:20:26;1.30;99.90
9371;DHT22;4725;48.384;8.984;2023-02-12T04:23:11;1.30;99.90
9371;DHT22;4725;48.384;8.984;2023-02-12T04:25:51;1.30;99.90
9371;DHT22;4725;48.384;8.984;2023-02-12T04:28:26;1.20;99.90
9371;DHT22;4725;48.384;8.984;2023-02-12T04:30:58;1.30;99.90
9371;DHT22;4725;48.384;8.984;2023-02-12T04:33:33;1.30;99.90
9371;DHT22;4725;48.384;8.984;2023-02-12T04:36:05;1.30;99.90
9371;DHT22;4725;48.384;8.984;2023-02-12T04:38:37;1.30;99.90
9371;DHT22;4725;48.384;8.984;2023-02-12T04:41:07;1.20;99.90
9371;DHT22;4725;48.384;8.984;2023-02-12T04:43:35;1.40;99.90
9371;DHT22;4725;48.384;8.984;2023-02-12T04:46:04;1.30;99.90
9371;DHT22;4725;48.384;8.984;2023-02-12T04:48:33;1.40;99.90
9371;DHT22;4725;48.384;8.984;2023-02-12T04:51:01;1.30;99.90
9371;DHT22;4725;48.384;8.984;2023-02-12T04:53:28;1.40;99.90
9371;DHT22;4725;48.384;8.984;2023-02-12T04:55:55;-0.30;99.90
9371;DHT22;4725;48.384;8.984;2023-02-12T04:58:22;1.40;99.90
9371;DHT22;4725;48.384;8.984;2023-02-12T05:00:48;1.30;99.90
9371;DHT22;4725;48.384;8.984;2023-02-12T05:03:15;1.40;99.90
9371;DHT22;4725;48.384;8.984;2023-02-12T05:05:44;1.30;99.90
9371;DHT22;4725;48.384;8.984;2023-02-12T05:08:10;1.20;99.90
9371;DHT22;4725;48.384;8.984;2023-02-12T05:10:37;1.20;99.90
9371;DHT22;4725;48.384;8.984;2023-02-12T05:13:04;1.10;99.90
9371;DHT22;4725;48.384;8.984;2023-02-12T05:15:31;1.10;99.90
9371;DHT22;4725;48.384;8.984;2023-02-12T05:17:58;1.20;99.90
9371;DHT22;4725;48.384;8.984;2023-02-12T05:20:25;1.20;99.90
9371;DHT22;4725;48.384;8.984;2023-02-12T05:22:53;1.20;99.90
9371;DHT22;4725;48.384;8.984;2023-02-12T05:25:20;1.20;99.90
9371;DHT22;4725;48.384;8.984;2023-02-12T05:27:47;1.20;99.90
9371;DHT22;4725;48.384;8.984;2023-02-12T05:30:15;1.20;99.90
9371;DHT22;4725;48.384;8.984;2023-02-12T05:32:41;1.10;99.90
9371;DHT22;4725;48.384;8.984;2023-02-12T05:35:08;1.10;99.90
9371;DHT22;4725;48.384;8.984;2023-02-12T05:37:35;1.20;99.90
9371;DHT22;4725;48.384;8.984;2023-02-12T05:40:05;1.10;99.90
9371;DHT22;4725;48.384;8.984;2023-02-12T05:42:33;1.10;99.90
9371;DHT22;4725;48.384;8.984;2023-02-12T05:45:00;1.10;99.90
9371;DHT22;4725;48.384;8.984;2023-02-12T05:47:27;1.20;99.90
9371;DHT22;4725;48.384;8.984;2023-02-12T05:49:54;1.20;99.90
9371;DHT22;4725;48.384;8.984;2023-02-12T05:52:21;1.20;99.90
9371;DHT22;4725;48.384;8.984;2023-02-12T05:54:48;1.20;99.90
9371;DHT22;4725;48.384;8.984;2023-02-12T05:57:17;1.30;99.90
9371;DHT22;4725;48.384;8.984;2023-02-12T05:59:44;1.30;99.90
9371;DHT22;4725;48.384;8.984;2023-02-12T06:02:11;3.00;99.90
9371;DHT22;4725;48.384;8.984;2023-02-12T06:04:37;1.30;99.90
9371;DHT22;4725;48.384;8.984;2023-02-12T06:07:04;1.40;99.90
9371;DHT22;4725;48.384;8.984;2023-02-12T06:09:32;1.40;99.90
9371;DHT22;4725;48.384;8.984;2023-02-12T06:12:00;1.50;99.90
9371;DHT22;4725;48.384;8.984;2023-02-12T06:14:28;1.50;99.90
9371;DHT22;4725;48.384;8.984;2023-02-12T06:16:55;1.50;99.90
9371;DHT22;4725;48.384;8.984;2023-02-12T06:19:22;1.40;99.90
9371;DHT22;4725;48.384;8.984;2023-02-12T06:21:50;1.40;99.90
9371;DHT22;4725;48.384;8.984;2023-02-12T06:24:17;1.50;99.90
9371;DHT22;4725;48.384;8.984;2023-02-12T06:26:44;1.50;99.90
9371;DHT22;4725;48.384;8.984;2023-02-12T06:29:11;1.50;99.90
9371;DHT22;4725;48.384;8.984;2023-02-12T06:31:40;1.40;99.90
9371;DHT22;4725;48.384;8.984;2023-02-12T06:34:08;1.50;99.90
9371;DHT22;4725;48.384;8.984;2023-02-12T06:36:36;1.60;99.90
9371;DHT22;4725;48.384;8.984;2023-02-12T06:39:03;1.50;99.90
9371;DHT22;4725;48.384;8.984;2023-02-12T06:41:30;1.60;99.90
9371;DHT22;4725;48.384;8.984;2023-02-12T06:43:57;1.70;99.90
9371;DHT22;4725;48.384;8.984;2023-02-12T06:48:53;1.60;99.90
9371;DHT22;4725;48.384;8.984;2023-02-12T06:51:21;1.60;99.90
9371;DHT22;4725;48.384;8.984;2023-02-12T06:53:49;1.70;99.90
9371;DHT22;4725;48.384;8.984;2023-02-12T06:56:16;1.70;99.90
9371;DHT22;4725;48.384;8.984;2023-02-12T06:58:46;1.70;99.90
9371;DHT22;4725;48.384;8.984;2023-02-12T07:01:15;1.70;99.90
9371;DHT22;4725;48.384;8.984;2023-02-12T07:03:43;1.70;99.90
9371;DHT22;4725;48.384;8.984;2023-02-12T07:06:14;1.70;99.90
9371;DHT22;4725;48.384;8.984;2023-02-12T07:08:41;1.80;99.90
9371;DHT22;4725;48.384;8.984;2023-02-12T07:11:08;1.80;99.90
9371;DHT22;4725;48.384;8.984;2023-02-12T07:13:35;1.80;99.90
9371;DHT22;4725;48.384;8.984;2023-02-12T07:16:05;1.90;99.90
9371;DHT22;4725;48.384;8.984;2023-02-12T07:18:32;1.90;99.90
9371;DHT22;4725;48.384;8.984;2023-02-12T07:20:59;2.00;99.90
9371;DHT22;4725;48.384;8.984;2023-02-12T07:23:27;2.00;99.90
9371;DHT22;4725;48.384;8.984;2023-02-12T07:28:22;2.10;99.90
9371;DHT22;4725;48.384;8.984;2023-02-12T07:30:49;2.20;99.90
9371;DHT22;4725;48.384;8.984;2023-02-12T07:33:16;3.80;99.90
9371;DHT22;4725;48.384;8.984;2023-02-12T07:35:44;2.30;99.90
9371;DHT22;4725;48.384;8.984;2023-02-12T07:38:11;2.30;99.90
9371;DHT22;4725;48.384;8.984;2023-02-12T07:40:40;2.40;99.90
9371;DHT22;4725;48.384;8.984;2023-02-12T07:43:07;2.40;99.90
9371;DHT22;4725;48.384;8.984;2023-02-12T07:45:34;2.50;99.90
9371;DHT22;4725;48.384;8.984;2023-02-12T07:48:00;2.60;99.90
9371;DHT22;4725;48.384;8.984;2023-02-12T07:50:27;2.60;99.90
9371;DHT22;4725;48.384;8.984;2023-02-12T07:57:50;2.80;99.90
9371;DHT22;4725;48.384;8.984;2023-02-12T08:00:18;2.90;99.90
9371;DHT22;4725;48.384;8.984;2023-02-12T08:02:50;2.80;99.90
9371;DHT22;4725;48.384;8.984;2023-02-12T08:05:17;3.00;99.90
9371;DHT22;4725;48.384;8.984;2023-02-12T08:07:44;3.00;99.90
9371;DHT22;4725;48.384;8.984;2023-02-12T08:10:11;3.00;99.90
9371;DHT22;4725;48.384;8.984;2023-02-12T08:12:38;2.90;99.90
9371;DHT22;4725;48.384;8.984;2023-02-12T08:15:07;2.90;99.90
9371;DHT22;4725;48.384;8.984;2023-02-12T08:17:34;3.00;99.90
9371;DHT22;4725;48.384;8.984;2023-02-12T08:20:02;3.10;99.90
9371;DHT22;4725;48.384;8.984;2023-02-12T08:22:29;3.10;99.90
9371;DHT22;4725;48.384;8.984;2023-02-12T08:24:55;3.20;99.90
9371;DHT22;4725;48.384;8.984;2023-02-12T08:27:22;3.30;99.90
9371;DHT22;4725;48.384;8.984;2023-02-12T08:29:49;3.20;99.90
9371;DHT22;4725;48.384;8.984;2023-02-12T08:32:17;3.30;99.90
9371;DHT22;4725;48.384;8.984;2023-02-12T08:34:44;3.40;99.90
9371;DHT22;4725;48.384;8.984;2023-02-12T08:37:11;3.50;99.90
9371;DHT22;4725;48.384;8.984;2023-02-12T08:39:39;3.60;99.90
9371;DHT22;4725;48.384;8.984;2023-02-12T08:42:06;3.60;99.90
9371;DHT22;4725;48.384;8.984;2023-02-12T08:44:33;3.70;99.90
9371;DHT22;4725;48.384;8.984;2023-02-12T08:47:00;3.70;99.90
9371;DHT22;4725;48.384;8.984;2023-02-12T08:49:29;3.70;99.90
9371;DHT22;4725;48.384;8.984;2023-02-12T08:51:57;3.80;99.90
9371;DHT22;4725;48.384;8.984;2023-02-12T08:54:27;3.90;99.90
9371;DHT22;4725;48.384;8.984;2023-02-12T08:56:55;4.00;99.90
9371;DHT22;4725;48.384;8.984;2023-02-12T08:59:22;4.10;99.90
9371;DHT22;4725;48.384;8.984;2023-02-12T09:01:50;4.20;99.90
9371;DHT22;4725;48.384;8.984;2023-02-12T09:04:20;4.20;99.90
9371;DHT22;4725;48.384;8.984;2023-02-12T09:06:49;4.30;99.90
9371;DHT22;4725;48.384;8.984;2023-02-12T09:09:16;4.30;99.90
9371;DHT22;4725;48.384;8.984;2023-02-12T09:11:44;4.40;99.90
9371;DHT22;4725;48.384;8.984;2023-02-12T09:14:14;4.70;99.90
9371;DHT22;4725;48.384;8.984;2023-02-12T09:19:11;4.90;99.90
9371;DHT22;4725;48.384;8.984;2023-02-12T09:21:38;4.90;99.90
9371;DHT22;4725;48.384;8.984;2023-02-12T09:24:06;5.00;99.90
9371;DHT22;4725;48.384;8.984;2023-02-12T09:26:33;5.00;99.90
9371;DHT22;4725;48.384;8.984;2023-02-12T09:29:03;5.30;99.90
9371;DHT22;4725;48.384;8.984;2023-02-12T09:31:31;5.40;99.90
9371;DHT22;4725;48.384;8.984;2023-02-12T09:33:59;5.60;99.90
9371;DHT22;4725;48.384;8.984;2023-02-12T09:36:27;4.40;99.90
9371;DHT22;4725;48.384;8.984;2023-02-12T09:38:54;5.60;99.90
9371;DHT22;4725;48.384;8.984;2023-02-12T09:41:48;5.70;99.90
9371;DHT22;4725;48.384;8.984;2023-02-12T09:44:24;5.80;99.90
9371;DHT22;4725;48.384;8.984;2023-02-12T09:46:56;5.90;99.90
9371;DHT22;4725;48.384;8.984;2023-02-12T09:52:16;5.90;99.90
9371;DHT22;4725;48.384;8.984;2023-02-12T09:54:44;6.30;99.90
9371;DHT22;4725;48.384;8.984;2023-02-12T09:57:18;6.30;99.90
9371;DHT22;4725;48.384;8.984;2023-02-12T09:59:49;6.40;99.90
9371;DHT22;4725;48.384;8.984;2023-02-12T10:02:18;6.40;99.90
9371;DHT22;4725;48.384;8.984;2023-02-12T10:04:47;6.60;99.90
9371;DHT22;4725;48.384;8.984;2023-02-12T10:07:19;6.90;99.90
9371;DHT22;4725;48.384;8.984;2023-02-12T10:10:05;7.10;99.90
9371;DHT22;4725;48.384;8.984;2023-02-12T10:12:41;7.00;99.90
9371;DHT22;4725;48.384;8.984;2023-02-12T10:15:19;7.00;99.90
9371;DHT22;4725;48.384;8.984;2023-02-12T10:17:56;7.00;99.90
9371;DHT22;4725;48.384;8.984;2023-02-12T10:20:45;6.80;99.90
9371;DHT22;4725;48.384;8.984;2023-02-12T10:23:30;6.90;99.90
9371;DHT22;4725;48.384;8.984;2023-02-12T10:26:08;6.60;99.90
9371;DHT22;4725;48.384;8.984;2023-02-12T10:28:39;6.70;99.90
9371;DHT22;4725;48.384;8.984;2023-02-12T10:31:11;6.60;99.90
9371;DHT22;4725;48.384;8.984;2023-02-12T10:33:42;7.10;99.90
9371;DHT22;4725;48.384;8.984;2023-02-12T10:36:17;7.10;99.90
9371;DHT22;4725;48.384;8.984;2023-02-12T10:38:48;7.30;99.90
9371;DHT22;4725;48.384;8.984;2023-02-12T10:41:16;7.30;99.90
9371;DHT22;4725;48.384;8.984;2023-02-12T10:43:44;7.40;99.90
9371;DHT22;4725;48.384;8.984;2023-02-12T10:46:13;7.50;99.90
9371;DHT22;4725;48.384;8.984;2023-02-12T10:48:43;7.40;99.90
9371;DHT22;4725;48.384;8.984;2023-02-12T10:51:26;7.40;99.90
9371;DHT22;4725;48.384;8.984;2023-02-12T10:53:54;7.30;99.90
9371;DHT22;4725;48.384;8.984;2023-02-12T10:56:22;7.00;99.90
9371;DHT22;4725;48.384;8.984;2023-02-12T10:58:54;6.90;99.90
9371;DHT22;4725;48.384;8.984;2023-02-12T11:01:25;7.20;99.90
9371;DHT22;4725;48.384;8.984;2023-02-12T11:03:53;7.30;99.90
9371;DHT22;4725;48.384;8.984;2023-02-12T11:06:22;7.50;99.90
9371;DHT22;4725;48.384;8.984;2023-02-12T11:08:50;7.30;99.90
9371;DHT22;4725;48.384;8.984;2023-02-12T11:11:19;7.30;99.90
9371;DHT22;4725;48.384;8.984;2023-02-12T11:13:55;7.40;99.90
9371;DHT22;4725;48.384;8.984;2023-02-12T11:16:28;7.20;99.90
9371;DHT22;4725;48.384;8.984;2023-02-12T11:19:00;7.30;99.90
9371;DHT22;4725;48.384;8.984;2023-02-12T11:21:27;7.50;99.90
9371;DHT22;4725;48.384;8.984;2023-02-12T11:23:54;7.40;99.90
9371;DHT22;4725;48.384;8.984;2023-02-12T11:26:26;7.40;99.90
9371;DHT22;4725;48.384;8.984;2023-02-12T11:28:57;7.50;99.90
9371;DHT22;4725;48.384;8.984;2023-02-12T11:34:13;7.60;99.90
9371;DHT22;4725;48.384;8.984;2023-02-12T11:36:41;8.00;99.90
9371;DHT22;4725;48.384;8.984;2023-02-12T11:39:17;8.20;99.90
9371;DHT22;4725;48.384;8.984;2023-02-12T11:41:50;8.20;99.90
9371;DHT22;4725;48.384;8.984;2023-02-12T11:44:20;8.80;99.90
9371;DHT22;4725;48.384;8.984;2023-02-12T11:46:50;8.50;99.90
9371;DHT22;4725;48.384;8.984;2023-02-12T11:49:23;8.20;99.90
9371;DHT22;4725;48.384;8.984;2023-02-12T11:51:51;8.20;99.90
9371;DHT22;4725;48.384;8.984;2023-02-12T11:54:21;8.00;99.90
9371;DHT22;4725;48.384;8.984;2023-02-12T11:56:49;8.40;99.90
9371;DHT22;4725;48.384;8.984;2023-02-12T11:59:32;8.40;99.90
9371;DHT22;4725;48.384;8.984;2023-02-12T12:02:07;8.50;99.90
9371;DHT22;4725;48.384;8.984;2023-02-12T12:04:40;8.80;99.90
9371;DHT22;4725;48.384;8.984;2023-02-12T12:07:11;9.50;99.90
9371;DHT22;4725;48.384;8.984;2023-02-12T12:09:42;9.60;99.90
9371;DHT22;4725;48.384;8.984;2023-02-12T12:12:16;9.90;99.90
9371;DHT22;4725;48.384;8.984;2023-02-12T12:14:49;11.20;99.90
9371;DHT22;4725;48.384;8.984;2023-02-12T12:17:40;11.80;99.90
9371;DHT22;4725;48.384;8.984;2023-02-12T12:20:30;11.80;99.90
9371;DHT22;4725;48.384;8.984;2023-02-12T12:23:02;11.20;99.90
9371;DHT22;4725;48.384;8.984;2023-02-12T12:25:36;11.30;99.90
9371;DHT22;4725;48.384;8.984;2023-02-12T12:28:16;11.20;99.90
9371;DHT22;4725;48.384;8.984;2023-02-12T12:30:58;11.10;99.90
9371;DHT22;4725;48.384;8.984;2023-02-12T12:33:36;10.60;99.90
9371;DHT22;4725;48.384;8.984;2023-02-12T12:36:29;10.00;99.90
9371;DHT22;4725;48.384;8.984;2023-02-12T12:39:04;10.00;99.90
9371;DHT22;4725;48.384;8.984;2023-02-12T12:41:40;10.00;99.90
9371;DHT22;4725;48.384;8.984;2023-02-12T12:44:26;9.80;99.90
9371;DHT22;4725;48.384;8.984;2023-02-12T12:47:14;10.20;99.90
9371;DHT22;4725;48.384;8.984;2023-02-12T12:49:56;10.30;99.90
9371;DHT22;4725;48.384;8.984;2023-02-12T12:52:46;11.50;99.90
9371;DHT22;4725;48.384;8.984;2023-02-12T12:55:34;13.10;99.90
9371;DHT22;4725;48.384;8.984;2023-02-12T12:58:12;13.00;99.90
9371;DHT22;4725;48.384;8.984;2023-02-12T13:01:09;14.10;99.90
9371;DHT22;4725;48.384;8.984;2023-02-12T13:04:00;15.30;99.90
9371;DHT22;4725;48.384;8.984;2023-02-12T13:09:38;13.40;99.90
9371;DHT22;4725;48.384;8.984;2023-02-12T13:15:02;12.80;99.90
9371;DHT22;4725;48.384;8.984;2023-02-12T13:17:35;13.10;99.90
9371;DHT22;4725;48.384;8.984;2023-02-12T13:20:14;13.40;99.90
9371;DHT22;4725;48.384;8.984;2023-02-12T13:22:48;13.70;99.90
9371;DHT22;4725;48.384;8.984;2023-02-12T13:25:22;14.10;99.90
9371;DHT22;4725;48.384;8.984;2023-02-12T13:27:53;14.00;99.90
9371;DHT22;4725;48.384;8.984;2023-02-12T13:30:24;14.20;99.90
9371;DHT22;4725;48.384;8.984;2023-02-12T13:33:00;14.30;99.90
9371;DHT22;4725;48.384;8.984;2023-02-12T13:35:32;14.50;99.90
9371;DHT22;4725;48.384;8.984;2023-02-12T13:37:59;14.40;99.90
9371;DHT22;4725;48.384;8.984;2023-02-12T13:40:29;14.60;99.90
9371;DHT22;4725;48.384;8.984;2023-02-12T13:43:01;14.70;99.90
9371;DHT22;4725;48.384;8.984;2023-02-12T13:45:39;14.30;99.90
9371;DHT22;4725;48.384;8.984;2023-02-12T13:48:22;14.50;99.90
9371;DHT22;4725;48.384;8.984;2023-02-12T13:50:56;14.30;99.90
9371;DHT22;4725;48.384;8.984;2023-02-12T13:53:28;14.20;99.90
9371;DHT22;4725;48.384;8.984;2023-02-12T13:56:06;14.50;99.90
9371;DHT22;4725;48.384;8.984;2023-02-12T13:58:47;14.90;99.90
9371;DHT22;4725;48.384;8.984;2023-02-12T14:01:39;15.70;99.90
9371;DHT22;4725;48.384;8.984;2023-02-12T14:04:26;15.40;99.90
9371;DHT22;4725;48.384;8.984;2023-02-12T14:06:58;15.70;99.90
9371;DHT22;4725;48.384;8.984;2023-02-12T14:09:33;15.20;99.90
9371;DHT22;4725;48.384;8.984;2023-02-12T14:12:04;15.30;99.90
9371;DHT22;4725;48.384;8.984;2023-02-12T14:14:34;16.20;99.90
9371;DHT22;4725;48.384;8.984;2023-02-12T14:17:39;16.10;99.90
9371;DHT22;4725;48.384;8.984;2023-02-12T14:20:21;15.70;99.90
9371;DHT22;4725;48.384;8.984;2023-02-12T14:23:21;15.70;99.90
9371;DHT22;4725;48.384;8.984;2023-02-12T14:26:02;15.10;99.90
9371;DHT22;4725;48.384;8.984;2023-02-12T14:28:46;15.50;99.90
9371;DHT22;4725;48.384;8.984;2023-02-12T14:31:32;15.60;99.90
9371;DHT22;4725;48.384;8.984;2023-02-12T14:37:34;15.40;99.90
9371;DHT22;4725;48.384;8.984;2023-02-12T14:40:37;15.50;99.90
9371;DHT22;4725;48.384;8.984;2023-02-12T14:43:28;15.10;99.90
9371;DHT22;4725;48.384;8.984;2023-02-12T14:45:56;15.50;99.90
9371;DHT22;4725;48.384;8.984;2023-02-12T14:48:46;15.60;99.90
9371;DHT22;4725;48.384;8.984;2023-02-12T14:51:21;15.00;99.90
9371;DHT22;4725;48.384;8.984;2023-02-12T14:53:50;14.80;99.90
9371;DHT22;4725;48.384;8.984;2023-02-12T14:56:21;15.30;99.90
9371;DHT22;4725;48.384;8.984;2023-02-12T14:58:50;15.20;99.90
9371;DHT22;4725;48.384;8.984;2023-02-12T15:01:25;16.00;99.90
9371;DHT22;4725;48.384;8.984;2023-02-12T15:03:57;16.10;99.90
9371;DHT22;4725;48.384;8.984;2023-02-12T15:06:33;15.80;99.90
9371;DHT22;4725;48.384;8.984;2023-02-12T15:09:06;15.40;99.90
9371;DHT22;4725;48.384;8.984;2023-02-12T15:11:40;15.20;99.90
9371;DHT22;4725;48.384;8.984;2023-02-12T15:14:14;15.00;99.90
9371;DHT22;4725;48.384;8.984;2023-02-12T15:16:51;14.70;99.90
9371;DHT22;4725;48.384;8.984;2023-02-12T15:19:30;14.80;99.90
9371;DHT22;4725;48.384;8.984;2023-02-12T15:21:57;14.90;99.90
9371;DHT22;4725;48.384;8.984;2023-02-12T15:24:25;15.00;99.90
9371;DHT22;4725;48.384;8.984;2023-02-12T15:26:55;15.20;99.90
9371;DHT22;4725;48.384;8.984;2023-02-12T15:29:25;15.00;99.90
9371;DHT22;4725;48.384;8.984;2023-02-12T15:31:56;15.20;99.90
9371;DHT22;4725;48.384;8.984;2023-02-12T15:34:27;15.20;99.90
9371;DHT22;4725;48.384;8.984;2023-02-12T15:36:57;14.60;99.90
9371;DHT22;4725;48.384;8.984;2023-02-12T15:39:25;14.00;99.90
9371;DHT22;4725;48.384;8.984;2023-02-12T15:41:54;13.50;99.90
9371;DHT22;4725;48.384;8.984;2023-02-12T15:44:25;13.40;99.90
9371;DHT22;4725;48.384;8.984;2023-02-12T15:46:57;12.10;99.90
9371;DHT22;4725;48.384;8.984;2023-02-12T15:49:27;11.20;99.90
9371;DHT22;4725;48.384;8.984;2023-02-12T15:51:55;10.10;99.90
9371;DHT22;4725;48.384;8.984;2023-02-12T15:54:22;9.40;99.90
9371;DHT22;4725;48.384;8.984;2023-02-12T15:56:50;8.80;99.90
9371;DHT22;4725;48.384;8.984;2023-02-12T15:59:21;8.60;99.90
9371;DHT22;4725;48.384;8.984;2023-02-12T16:01:53;8.20;99.90
9371;DHT22;4725;48.384;8.984;2023-02-12T16:04:20;7.90;99.90
9371;DHT22;4725;48.384;8.984;2023-02-12T16:06:48;7.50;99.90
9371;DHT22;4725;48.384;8.984;2023-02-12T16:09:17;7.30;99.90
9371;DHT22;4725;48.384;8.984;2023-02-12T16:11:50;7.20;99.90
9371;DHT22;4725;48.384;8.984;2023-02-12T16:14:21;7.00;99.90
9371;DHT22;4725;48.384;8.984;2023-02-12T16:16:51;6.70;99.90
9371;DHT22;4725;48.384;8.984;2023-02-12T16:19:21;6.70;99.90
9371;DHT22;4725;48.384;8.984;2023-02-12T16:21:51;6.60;99.90
9371;DHT22;4725;48.384;8.984;2023-02-12T16:24:26;6.40;99.90
9371;DHT22;4725;48.384;8.984;2023-02-12T16:26:54;6.30;99.90
9371;DHT22;4725;48.384;8.984;2023-02-12T16:29:23;6.20;99.90
9371;DHT22;4725;48.384;8.984;2023-02-12T16:31:56;6.10;99.90
9371;DHT22;4725;48.384;8.984;2023-02-12T16:34:32;5.90;99.90
9371;DHT22;4725;48.384;8.984;2023-02-12T16:36:59;5.70;99.90
9371;DHT22;4725;48.384;8.984;2023-02-12T16:42:36;5.40;99.90
9371;DHT22;4725;48.384;8.984;2023-02-12T16:45:38;5.30;99.90
9371;DHT22;4725;48.384;8.984;2023-02-12T16:48:09;5.30;99.90
9371;DHT22;4725;48.384;8.984;2023-02-12T16:50:45;5.00;99.90
9371;DHT22;4725;48.384;8.984;2023-02-12T16:53:32;4.90;99.90
9371;DHT22;4725;48.384;8.984;2023-02-12T16:56:00;4.70;99.90
9371;DHT22;4725;48.384;8.984;2023-02-12T16:58:28;4.60;99.90
9371;DHT22;4725;48.384;8.984;2023-02-12T17:00:57;4.50;99.90
9371;DHT22;4725;48.384;8.984;2023-02-12T17:03:27;4.40;99.90
9371;DHT22;4725;48.384;8.984;2023-02-12T17:05:54;4.30;99.90
9371;DHT22;4725;48.384;8.984;2023-02-12T17:08:22;4.30;99.90
9371;DHT22;4725;48.384;8.984;2023-02-12T17:10:50;4.20;99.90
9371;DHT22;4725;48.384;8.984;2023-02-12T17:15:49;3.60;99.90
9371;DHT22;4725;48.384;8.984;2023-02-12T17:18:18;3.60;99.90
9371;DHT22;4725;48.384;8.984;2023-02-12T17:20:50;3.50;99.90
9371;DHT22;4725;48.384;8.984;2023-02-12T17:23:18;3.30;99.90
9371;DHT22;4725;48.384;8.984;2023-02-12T17:25:45;3.20;99.90